Thursday, April 24, 2014, 9:34 AM EDT

KPOU, Poughkeepsie Dutchess Cty

Location: Wappingers Falls, NY, United States Lat: 41.633
Local Time: 9:34 AM EDT (13:34 GMT) Lon: -73.883
Time Zone: US/Eastern Elev: 167 ft

Show me the last for .
Show Decoded

2014-04-24 08:53 METAR KPOU 241253Z 31009G20KT 10SM CLR 08/M09 A2988 RMK AO2 SLP117 T00831089 =
2014-04-24 07:53 METAR KPOU 241153Z 29011KT 10SM CLR 07/M09 A2988 RMK AO2 SLP117 70006 T00671089
                 10067 20028 51019 =
2014-04-24 06:53 METAR KPOU 241053Z 29012G18KT 10SM CLR 06/M10 A2987 RMK AO2 SLP112 T00561100 =
2014-04-24 05:53 METAR KPOU 240953Z AUTO 34006KT 10SM CLR 04/M08 A2984 RMK AO2 SLP104 T00441083 =
2014-04-24 04:53 METAR KPOU 240853Z AUTO 00000KT 10SM CLR 03/M05 A2983 RMK AO2 SLP098 T00331050
                 53004 =
2014-04-24 03:53 METAR KPOU 240753Z AUTO 32008KT 10SM CLR 06/M05 A2982 RMK AO2 SLP096 T00561050 =
2014-04-24 02:53 METAR KPOU 240653Z AUTO 31006KT 10SM CLR 06/M04 A2981 RMK AO2 SLP092 T00561039 =
2014-04-24 01:53 METAR KPOU 240553Z AUTO 30009KT 10SM CLR 07/M03 A2981 RMK AO2 SLP093 T00671033
                 10083 20067 51006 =
2014-04-24 00:53 METAR KPOU 240453Z AUTO 28010KT 10SM CLR 07/M03 A2980 RMK AO2 SLP089 T00671033
                 401440067 =
2014-04-23 23:53 METAR KPOU 240353Z AUTO 32007KT 10SM OVC070 08/M04 A2981 RMK AO2 PK WND
                 33026/0310 SLP091 T00831039 =
2014-04-23 22:53 METAR KPOU 240253Z AUTO 32012G17KT 10SM OVC065 08/M03 A2980 RMK AO2 SLP087
                 T00831028 51019 =
2014-04-23 21:53 METAR KPOU 240153Z AUTO 30009KT 10SM OVC050 08/M01 A2979 RMK AO2 SLP084
                 T00831011 =
2014-04-23 20:53 METAR KPOU 240053Z AUTO 30012G21KT 10SM OVC048 08/M01 A2976 RMK AO2 PK WND
                 31030/0001 SLP077 T00831011 =
2014-04-23 19:53 METAR KPOU 232353Z AUTO 32021G26KT 10SM BKN050 08/M02 A2974 RMK AO2 PK WND
                 32029/2304 SLP068 T00831017 10144 20083 51031 =
2014-04-23 18:53 METAR KPOU 232253Z AUTO 33019G28KT 10SM OVC047 09/00 A2971 RMK AO2 PK WND
                 32028/2234 SLP058 T00890000 =
2014-04-23 17:53 METAR KPOU 232153Z AUTO 32014G25KT 10SM BKN050 BKN060 BKN110 11/01 A2968 RMK AO2
                 PK WND 31027/2109 SLP047 T01110006 =
2014-04-23 16:53 METAR KPOU 232053Z AUTO 34014G25KT 10SM SCT060 12/01 A2965 RMK AO2 PK WND
                 34029/2035 SLP035 T01220011 53012 =
2014-04-23 15:53 METAR KPOU 231953Z AUTO 31015G26KT 10SM BKN048 BKN060 12/02 A2962 RMK AO2 PK WND
                 34026/1930 SLP028 T01220017 =
2014-04-23 14:53 METAR KPOU 231853Z 32008G18KT 10SM SCT048 OVC060 14/04 A2960 =
2014-04-23 13:53 METAR KPOU 231753Z 35008KT 10SM FEW030 OVC045 11/05 A2961 RMK AO2 RAB1658E49
                 SLP024 P0001 60006 T01110050 10117 20078 53009 =
2014-04-23 12:53 METAR KPOU 231653Z 32007G17KT 10SM BKN037 OVC050 12/04 A2959 RMK AO2 RAB49E53
                 SLP016 P0000 T01170044 =
2014-04-23 11:53 METAR KPOU 231553Z 34016G25KT 10SM BKN043 BKN050 OVC060 12/04 A2958 RMK AO2
                 SLP014 T01170044 =
2014-04-23 10:53 METAR KPOU 231453Z 00000KT 10SM FEW034 BKN046 OVC060 08/05 A2958 RMK AO2 RAE41
                 SLP015 P0005 60005 T00830050 51009 =
2014-04-23 09:53 METAR KPOU 231353Z 31005KT 10SM -RA OVC033 09/04 A2958 RMK AO2 RAB42 SLP014
                 P0000 T00890039 =

Support USWX by starting your Amazon purchase here.